sensor_id;sensor_type;location;lat;lon;timestamp;P1;durP1;ratioP1;P2;durP2;ratioP2
2838;SDS011;1427;48.510;9.060;2023-10-09T00:00:25;46.50;;;2.30;;
2838;SDS011;1427;48.510;9.060;2023-10-09T00:03:18;46.17;;;2.20;;
2838;SDS011;1427;48.510;9.060;2023-10-09T00:05:49;46.90;;;3.30;;
2838;SDS011;1427;48.510;9.060;2023-10-09T00:08:20;46.20;;;2.33;;
2838;SDS011;1427;48.510;9.060;2023-10-09T00:10:50;46.53;;;2.30;;
2838;SDS011;1427;48.510;9.060;2023-10-09T00:13:20;47.10;;;2.47;;
2838;SDS011;1427;48.510;9.060;2023-10-09T00:15:54;46.77;;;2.50;;
2838;SDS011;1427;48.510;9.060;2023-10-09T00:18:28;46.10;;;2.10;;
2838;SDS011;1427;48.510;9.060;2023-10-09T00:20:57;46.27;;;1.97;;
2838;SDS011;1427;48.510;9.060;2023-10-09T00:23:37;46.17;;;2.10;;
2838;SDS011;1427;48.510;9.060;2023-10-09T00:26:05;47.17;;;2.47;;
2838;SDS011;1427;48.510;9.060;2023-10-09T00:28:37;46.57;;;1.77;;
2838;SDS011;1427;48.510;9.060;2023-10-09T00:31:10;46.47;;;2.07;;
2838;SDS011;1427;48.510;9.060;2023-10-09T00:33:44;46.70;;;2.20;;
2838;SDS011;1427;48.510;9.060;2023-10-09T00:36:12;46.20;;;1.83;;
2838;SDS011;1427;48.510;9.060;2023-10-09T00:38:46;46.80;;;1.97;;
2838;SDS011;1427;48.510;9.060;2023-10-09T00:41:19;46.17;;;1.97;;
2838;SDS011;1427;48.510;9.060;2023-10-09T00:43:51;46.70;;;2.17;;
2838;SDS011;1427;48.510;9.060;2023-10-09T00:46:20;49.70;;;4.30;;
2838;SDS011;1427;48.510;9.060;2023-10-09T00:48:54;50.20;;;3.00;;
2838;SDS011;1427;48.510;9.060;2023-10-09T00:51:24;46.80;;;2.23;;
2838;SDS011;1427;48.510;9.060;2023-10-09T00:53:54;46.30;;;1.93;;
2838;SDS011;1427;48.510;9.060;2023-10-09T00:56:26;46.67;;;2.37;;
2838;SDS011;1427;48.510;9.060;2023-10-09T00:59:05;48.17;;;1.97;;
2838;SDS011;1427;48.510;9.060;2023-10-09T01:01:36;46.60;;;2.40;;
2838;SDS011;1427;48.510;9.060;2023-10-09T01:04:08;46.07;;;2.20;;
2838;SDS011;1427;48.510;9.060;2023-10-09T01:06:39;46.63;;;2.53;;
2838;SDS011;1427;48.510;9.060;2023-10-09T01:09:11;45.60;;;1.70;;
2838;SDS011;1427;48.510;9.060;2023-10-09T01:11:41;45.67;;;1.53;;
2838;SDS011;1427;48.510;9.060;2023-10-09T01:14:29;48.03;;;3.03;;
2838;SDS011;1427;48.510;9.060;2023-10-09T01:17:02;46.57;;;2.57;;
2838;SDS011;1427;48.510;9.060;2023-10-09T01:19:37;48.17;;;2.80;;
2838;SDS011;1427;48.510;9.060;2023-10-09T01:22:05;50.97;;;2.30;;
2838;SDS011;1427;48.510;9.060;2023-10-09T01:24:41;46.27;;;2.43;;
2838;SDS011;1427;48.510;9.060;2023-10-09T01:27:10;47.10;;;2.47;;
2838;SDS011;1427;48.510;9.060;2023-10-09T01:29:42;47.90;;;1.77;;
2838;SDS011;1427;48.510;9.060;2023-10-09T01:32:12;46.50;;;2.43;;
2838;SDS011;1427;48.510;9.060;2023-10-09T01:34:45;45.40;;;1.70;;
2838;SDS011;1427;48.510;9.060;2023-10-09T01:37:16;46.10;;;2.30;;
2838;SDS011;1427;48.510;9.060;2023-10-09T01:39:51;45.77;;;1.90;;
2838;SDS011;1427;48.510;9.060;2023-10-09T01:42:24;46.70;;;2.47;;
2838;SDS011;1427;48.510;9.060;2023-10-09T01:45:01;47.37;;;3.00;;
2838;SDS011;1427;48.510;9.060;2023-10-09T01:47:37;48.10;;;4.00;;
2838;SDS011;1427;48.510;9.060;2023-10-09T01:50:06;46.40;;;2.43;;
2838;SDS011;1427;48.510;9.060;2023-10-09T01:52:38;46.53;;;2.40;;
2838;SDS011;1427;48.510;9.060;2023-10-09T01:55:07;46.40;;;2.40;;
2838;SDS011;1427;48.510;9.060;2023-10-09T01:57:39;46.27;;;2.10;;
2838;SDS011;1427;48.510;9.060;2023-10-09T02:00:11;46.87;;;2.60;;
2838;SDS011;1427;48.510;9.060;2023-10-09T02:02:49;49.13;;;2.27;;
2838;SDS011;1427;48.510;9.060;2023-10-09T02:05:18;47.07;;;2.77;;
2838;SDS011;1427;48.510;9.060;2023-10-09T02:07:52;45.70;;;2.10;;
2838;SDS011;1427;48.510;9.060;2023-10-09T02:10:23;45.53;;;1.57;;
2838;SDS011;1427;48.510;9.060;2023-10-09T02:12:59;49.37;;;2.93;;
2838;SDS011;1427;48.510;9.060;2023-10-09T02:15:34;51.17;;;2.10;;
2838;SDS011;1427;48.510;9.060;2023-10-09T02:18:13;45.80;;;1.80;;
2838;SDS011;1427;48.510;9.060;2023-10-09T02:20:52;49.53;;;2.33;;
2838;SDS011;1427;48.510;9.060;2023-10-09T02:23:39;46.50;;;2.33;;
2838;SDS011;1427;48.510;9.060;2023-10-09T02:26:13;46.80;;;2.03;;
2838;SDS011;1427;48.510;9.060;2023-10-09T02:28:46;46.67;;;2.17;;
2838;SDS011;1427;48.510;9.060;2023-10-09T02:31:19;45.80;;;2.00;;
2838;SDS011;1427;48.510;9.060;2023-10-09T02:33:49;46.30;;;1.97;;
2838;SDS011;1427;48.510;9.060;2023-10-09T02:36:21;46.30;;;2.10;;
2838;SDS011;1427;48.510;9.060;2023-10-09T02:38:49;46.10;;;1.93;;
2838;SDS011;1427;48.510;9.060;2023-10-09T02:41:21;46.50;;;1.50;;
2838;SDS011;1427;48.510;9.060;2023-10-09T02:43:49;48.03;;;2.17;;
2838;SDS011;1427;48.510;9.060;2023-10-09T02:46:18;48.30;;;2.30;;
2838;SDS011;1427;48.510;9.060;2023-10-09T02:48:47;46.07;;;1.93;;
2838;SDS011;1427;48.510;9.060;2023-10-09T02:51:18;45.77;;;1.60;;
2838;SDS011;1427;48.510;9.060;2023-10-09T02:53:59;46.23;;;2.40;;
2838;SDS011;1427;48.510;9.060;2023-10-09T02:56:36;46.60;;;2.60;;
2838;SDS011;1427;48.510;9.060;2023-10-09T02:59:09;47.10;;;2.70;;
2838;SDS011;1427;48.510;9.060;2023-10-09T03:01:38;45.70;;;1.57;;
2838;SDS011;1427;48.510;9.060;2023-10-09T03:04:07;45.73;;;1.80;;
2838;SDS011;1427;48.510;9.060;2023-10-09T03:06:37;48.93;;;2.50;;
2838;SDS011;1427;48.510;9.060;2023-10-09T03:09:16;46.73;;;2.30;;
2838;SDS011;1427;48.510;9.060;2023-10-09T03:11:47;46.50;;;2.57;;
2838;SDS011;1427;48.510;9.060;2023-10-09T03:14:20;45.63;;;1.50;;
2838;SDS011;1427;48.510;9.060;2023-10-09T03:16:51;46.50;;;1.83;;
2838;SDS011;1427;48.510;9.060;2023-10-09T03:19:19;45.80;;;2.20;;
2838;SDS011;1427;48.510;9.060;2023-10-09T03:21:47;48.70;;;2.37;;
2838;SDS011;1427;48.510;9.060;2023-10-09T03:24:16;46.40;;;2.43;;
2838;SDS011;1427;48.510;9.060;2023-10-09T03:26:47;46.47;;;2.57;;
2838;SDS011;1427;48.510;9.060;2023-10-09T03:29:16;47.40;;;3.00;;
2838;SDS011;1427;48.510;9.060;2023-10-09T03:31:45;46.30;;;2.63;;
2838;SDS011;1427;48.510;9.060;2023-10-09T03:34:16;50.40;;;2.57;;
2838;SDS011;1427;48.510;9.060;2023-10-09T03:36:45;46.13;;;1.90;;
2838;SDS011;1427;48.510;9.060;2023-10-09T03:39:14;45.97;;;2.30;;
2838;SDS011;1427;48.510;9.060;2023-10-09T03:41:53;46.37;;;2.07;;
2838;SDS011;1427;48.510;9.060;2023-10-09T03:44:25;47.20;;;2.10;;
2838;SDS011;1427;48.510;9.060;2023-10-09T03:46:55;46.03;;;2.07;;
2838;SDS011;1427;48.510;9.060;2023-10-09T03:49:23;46.20;;;2.50;;
2838;SDS011;1427;48.510;9.060;2023-10-09T03:51:52;46.10;;;2.40;;
2838;SDS011;1427;48.510;9.060;2023-10-09T03:54:21;45.47;;;1.50;;
2838;SDS011;1427;48.510;9.060;2023-10-09T03:56:51;60.80;;;3.70;;
2838;SDS011;1427;48.510;9.060;2023-10-09T03:59:21;46.70;;;2.77;;
2838;SDS011;1427;48.510;9.060;2023-10-09T04:01:49;46.40;;;2.20;;
2838;SDS011;1427;48.510;9.060;2023-10-09T04:04:19;45.87;;;1.87;;
2838;SDS011;1427;48.510;9.060;2023-10-09T04:06:49;48.10;;;2.23;;
2838;SDS011;1427;48.510;9.060;2023-10-09T04:09:18;46.50;;;2.13;;
2838;SDS011;1427;48.510;9.060;2023-10-09T04:12:07;51.97;;;3.13;;
2838;SDS011;1427;48.510;9.060;2023-10-09T04:14:51;46.20;;;2.10;;
2838;SDS011;1427;48.510;9.060;2023-10-09T04:17:24;46.13;;;2.40;;
2838;SDS011;1427;48.510;9.060;2023-10-09T04:20:02;46.07;;;1.83;;
2838;SDS011;1427;48.510;9.060;2023-10-09T04:22:49;45.90;;;2.23;;
2838;SDS011;1427;48.510;9.060;2023-10-09T04:25:26;49.20;;;2.40;;
2838;SDS011;1427;48.510;9.060;2023-10-09T04:27:58;47.43;;;1.97;;
2838;SDS011;1427;48.510;9.060;2023-10-09T04:30:36;47.73;;;2.60;;
2838;SDS011;1427;48.510;9.060;2023-10-09T04:33:07;45.83;;;1.97;;
2838;SDS011;1427;48.510;9.060;2023-10-09T04:35:54;46.87;;;2.60;;
2838;SDS011;1427;48.510;9.060;2023-10-09T04:38:37;46.20;;;2.30;;
2838;SDS011;1427;48.510;9.060;2023-10-09T04:41:05;47.80;;;3.63;;
2838;SDS011;1427;48.510;9.060;2023-10-09T04:43:36;46.70;;;2.10;;
2838;SDS011;1427;48.510;9.060;2023-10-09T04:46:10;45.37;;;1.57;;
2838;SDS011;1427;48.510;9.060;2023-10-09T04:48:39;46.00;;;1.90;;
2838;SDS011;1427;48.510;9.060;2023-10-09T04:51:14;45.90;;;2.10;;
2838;SDS011;1427;48.510;9.060;2023-10-09T04:53:49;46.17;;;2.00;;
2838;SDS011;1427;48.510;9.060;2023-10-09T04:56:27;50.90;;;2.73;;
2838;SDS011;1427;48.510;9.060;2023-10-09T04:58:59;47.33;;;2.17;;
2838;SDS011;1427;48.510;9.060;2023-10-09T05:01:31;46.17;;;2.10;;
2838;SDS011;1427;48.510;9.060;2023-10-09T05:04:10;45.83;;;2.03;;
2838;SDS011;1427;48.510;9.060;2023-10-09T05:06:56;46.80;;;2.13;;
2838;SDS011;1427;48.510;9.060;2023-10-09T05:09:23;45.90;;;2.00;;
2838;SDS011;1427;48.510;9.060;2023-10-09T05:11:52;48.77;;;2.60;;
2838;SDS011;1427;48.510;9.060;2023-10-09T05:14:21;45.77;;;2.07;;
2838;SDS011;1427;48.510;9.060;2023-10-09T05:17:06;46.90;;;3.00;;
2838;SDS011;1427;48.510;9.060;2023-10-09T05:19:33;47.10;;;1.93;;
2838;SDS011;1427;48.510;9.060;2023-10-09T05:22:09;45.90;;;1.70;;
2838;SDS011;1427;48.510;9.060;2023-10-09T05:24:57;46.00;;;1.97;;
2838;SDS011;1427;48.510;9.060;2023-10-09T05:27:26;45.90;;;1.90;;
2838;SDS011;1427;48.510;9.060;2023-10-09T05:30:09;45.93;;;1.83;;
2838;SDS011;1427;48.510;9.060;2023-10-09T05:32:52;45.53;;;1.70;;
2838;SDS011;1427;48.510;9.060;2023-10-09T05:35:24;48.60;;;1.80;;
2838;SDS011;1427;48.510;9.060;2023-10-09T05:38:07;46.80;;;2.37;;
2838;SDS011;1427;48.510;9.060;2023-10-09T05:40:50;45.97;;;1.53;;
2838;SDS011;1427;48.510;9.060;2023-10-09T05:43:20;45.43;;;1.53;;
2838;SDS011;1427;48.510;9.060;2023-10-09T05:46:09;46.80;;;2.73;;
2838;SDS011;1427;48.510;9.060;2023-10-09T05:48:42;48.10;;;2.27;;
2838;SDS011;1427;48.510;9.060;2023-10-09T05:51:21;52.30;;;8.90;;
2838;SDS011;1427;48.510;9.060;2023-10-09T05:54:06;53.00;;;6.60;;
2838;SDS011;1427;48.510;9.060;2023-10-09T05:56:52;49.30;;;4.80;;
2838;SDS011;1427;48.510;9.060;2023-10-09T05:59:38;49.07;;;6.23;;
2838;SDS011;1427;48.510;9.060;2023-10-09T06:02:25;50.33;;;4.50;;
2838;SDS011;1427;48.510;9.060;2023-10-09T06:05:26;47.80;;;4.30;;
2838;SDS011;1427;48.510;9.060;2023-10-09T06:08:18;49.53;;;6.43;;
2838;SDS011;1427;48.510;9.060;2023-10-09T06:10:51;49.40;;;5.30;;
2838;SDS011;1427;48.510;9.060;2023-10-09T06:13:33;55.93;;;6.50;;
2838;SDS011;1427;48.510;9.060;2023-10-09T06:16:13;49.50;;;6.50;;
2838;SDS011;1427;48.510;9.060;2023-10-09T06:18:48;50.10;;;4.90;;
2838;SDS011;1427;48.510;9.060;2023-10-09T06:21:34;47.90;;;4.60;;
2838;SDS011;1427;48.510;9.060;2023-10-09T06:24:20;48.77;;;5.50;;
2838;SDS011;1427;48.510;9.060;2023-10-09T06:26:50;48.07;;;4.73;;
2838;SDS011;1427;48.510;9.060;2023-10-09T06:29:39;48.33;;;5.00;;
2838;SDS011;1427;48.510;9.060;2023-10-09T06:32:18;49.70;;;5.53;;
2838;SDS011;1427;48.510;9.060;2023-10-09T06:35:02;50.83;;;5.83;;
2838;SDS011;1427;48.510;9.060;2023-10-09T06:37:45;49.57;;;5.07;;
2838;SDS011;1427;48.510;9.060;2023-10-09T06:40:33;48.60;;;5.10;;
2838;SDS011;1427;48.510;9.060;2023-10-09T06:43:20;47.67;;;3.97;;
2838;SDS011;1427;48.510;9.060;2023-10-09T06:45:55;54.30;;;5.37;;
2838;SDS011;1427;48.510;9.060;2023-10-09T06:48:45;48.30;;;5.77;;
2838;SDS011;1427;48.510;9.060;2023-10-09T06:51:24;48.10;;;4.83;;
2838;SDS011;1427;48.510;9.060;2023-10-09T06:54:10;54.30;;;5.67;;
2838;SDS011;1427;48.510;9.060;2023-10-09T06:56:44;49.50;;;6.13;;
2838;SDS011;1427;48.510;9.060;2023-10-09T06:59:32;48.90;;;5.53;;
2838;SDS011;1427;48.510;9.060;2023-10-09T07:02:29;54.23;;;6.37;;
2838;SDS011;1427;48.510;9.060;2023-10-09T07:05:12;49.53;;;5.63;;
2838;SDS011;1427;48.510;9.060;2023-10-09T07:07:45;50.20;;;6.77;;
2838;SDS011;1427;48.510;9.060;2023-10-09T07:10:22;53.03;;;5.60;;
2838;SDS011;1427;48.510;9.060;2023-10-09T07:12:59;56.63;;;5.37;;
2838;SDS011;1427;48.510;9.060;2023-10-09T07:15:30;47.67;;;3.90;;
2838;SDS011;1427;48.510;9.060;2023-10-09T07:18:18;51.33;;;7.17;;
2838;SDS011;1427;48.510;9.060;2023-10-09T07:20:50;61.67;;;6.17;;
2838;SDS011;1427;48.510;9.060;2023-10-09T07:23:29;48.40;;;5.63;;
2838;SDS011;1427;48.510;9.060;2023-10-09T07:26:04;52.30;;;6.00;;
2838;SDS011;1427;48.510;9.060;2023-10-09T07:28:50;47.87;;;4.70;;
2838;SDS011;1427;48.510;9.060;2023-10-09T07:31:27;49.47;;;5.97;;
2838;SDS011;1427;48.510;9.060;2023-10-09T07:34:06;48.67;;;6.27;;
2838;SDS011;1427;48.510;9.060;2023-10-09T07:36:57;48.70;;;5.27;;
2838;SDS011;1427;48.510;9.060;2023-10-09T07:39:31;50.57;;;5.37;;
2838;SDS011;1427;48.510;9.060;2023-10-09T07:42:04;48.77;;;5.13;;
2838;SDS011;1427;48.510;9.060;2023-10-09T07:44:56;51.17;;;4.90;;
2838;SDS011;1427;48.510;9.060;2023-10-09T07:47:24;53.30;;;5.83;;
2838;SDS011;1427;48.510;9.060;2023-10-09T07:50:12;53.73;;;7.80;;
2838;SDS011;1427;48.510;9.060;2023-10-09T07:52:47;48.80;;;5.27;;
2838;SDS011;1427;48.510;9.060;2023-10-09T07:55:17;56.13;;;7.90;;
2838;SDS011;1427;48.510;9.060;2023-10-09T07:58:05;48.60;;;5.40;;
2838;SDS011;1427;48.510;9.060;2023-10-09T08:00:38;47.60;;;4.13;;
2838;SDS011;1427;48.510;9.060;2023-10-09T08:03:32;48.37;;;4.97;;
2838;SDS011;1427;48.510;9.060;2023-10-09T08:06:02;51.53;;;6.80;;
2838;SDS011;1427;48.510;9.060;2023-10-09T08:08:51;58.23;;;6.17;;
2838;SDS011;1427;48.510;9.060;2023-10-09T08:11:34;51.20;;;6.20;;
2838;SDS011;1427;48.510;9.060;2023-10-09T08:14:26;51.50;;;6.50;;
2838;SDS011;1427;48.510;9.060;2023-10-09T08:17:09;49.17;;;5.50;;
2838;SDS011;1427;48.510;9.060;2023-10-09T08:19:47;48.90;;;6.03;;
2838;SDS011;1427;48.510;9.060;2023-10-09T08:22:22;49.40;;;5.97;;
2838;SDS011;1427;48.510;9.060;2023-10-09T08:25:09;50.27;;;6.77;;
2838;SDS011;1427;48.510;9.060;2023-10-09T08:28:00;50.43;;;6.70;;
2838;SDS011;1427;48.510;9.060;2023-10-09T08:30:47;55.07;;;7.30;;
2838;SDS011;1427;48.510;9.060;2023-10-09T08:33:29;52.10;;;6.20;;
2838;SDS011;1427;48.510;9.060;2023-10-09T08:36:13;49.37;;;6.43;;
2838;SDS011;1427;48.510;9.060;2023-10-09T08:38:49;48.00;;;5.10;;
2838;SDS011;1427;48.510;9.060;2023-10-09T08:41:18;48.77;;;5.87;;
2838;SDS011;1427;48.510;9.060;2023-10-09T08:43:51;48.07;;;5.27;;
2838;SDS011;1427;48.510;9.060;2023-10-09T08:46:22;48.63;;;5.07;;
2838;SDS011;1427;48.510;9.060;2023-10-09T08:48:54;53.30;;;6.83;;
2838;SDS011;1427;48.510;9.060;2023-10-09T08:51:23;49.90;;;6.47;;
2838;SDS011;1427;48.510;9.060;2023-10-09T08:53:52;49.07;;;5.97;;
2838;SDS011;1427;48.510;9.060;2023-10-09T08:56:21;50.30;;;7.57;;
2838;SDS011;1427;48.510;9.060;2023-10-09T08:58:52;51.57;;;5.20;;
2838;SDS011;1427;48.510;9.060;2023-10-09T09:01:22;48.90;;;5.97;;
2838;SDS011;1427;48.510;9.060;2023-10-09T09:03:52;48.07;;;4.50;;
2838;SDS011;1427;48.510;9.060;2023-10-09T09:06:22;48.67;;;5.90;;
2838;SDS011;1427;48.510;9.060;2023-10-09T09:08:51;49.70;;;6.77;;
2838;SDS011;1427;48.510;9.060;2023-10-09T09:11:26;50.23;;;6.13;;
2838;SDS011;1427;48.510;9.060;2023-10-09T09:14:02;49.37;;;5.90;;
2838;SDS011;1427;48.510;9.060;2023-10-09T09:16:34;55.13;;;6.53;;
2838;SDS011;1427;48.510;9.060;2023-10-09T09:19:03;49.43;;;6.00;;
2838;SDS011;1427;48.510;9.060;2023-10-09T09:21:47;50.90;;;6.30;;
2838;SDS011;1427;48.510;9.060;2023-10-09T09:24:21;48.57;;;5.37;;
2838;SDS011;1427;48.510;9.060;2023-10-09T09:27:03;49.30;;;6.00;;
2838;SDS011;1427;48.510;9.060;2023-10-09T09:29:46;48.07;;;5.37;;
2838;SDS011;1427;48.510;9.060;2023-10-09T09:32:29;48.70;;;5.03;;
2838;SDS011;1427;48.510;9.060;2023-10-09T09:35:02;49.13;;;4.70;;
2838;SDS011;1427;48.510;9.060;2023-10-09T09:37:32;49.60;;;6.57;;
2838;SDS011;1427;48.510;9.060;2023-10-09T09:40:17;51.57;;;6.47;;
2838;SDS011;1427;48.510;9.060;2023-10-09T09:43:00;48.73;;;5.77;;
2838;SDS011;1427;48.510;9.060;2023-10-09T09:45:33;50.73;;;7.30;;
2838;SDS011;1427;48.510;9.060;2023-10-09T09:48:03;49.33;;;6.03;;
2838;SDS011;1427;48.510;9.060;2023-10-09T09:50:33;48.60;;;5.17;;
2838;SDS011;1427;48.510;9.060;2023-10-09T09:53:10;49.90;;;6.20;;
2838;SDS011;1427;48.510;9.060;2023-10-09T09:55:44;52.20;;;7.67;;
2838;SDS011;1427;48.510;9.060;2023-10-09T09:58:23;50.20;;;7.07;;
2838;SDS011;1427;48.510;9.060;2023-10-09T10:00:56;51.63;;;5.80;;
2838;SDS011;1427;48.510;9.060;2023-10-09T10:03:36;48.33;;;5.20;;
2838;SDS011;1427;48.510;9.060;2023-10-09T10:06:10;52.10;;;6.13;;
2838;SDS011;1427;48.510;9.060;2023-10-09T10:08:41;66.60;;;6.00;;
2838;SDS011;1427;48.510;9.060;2023-10-09T10:11:12;54.77;;;5.87;;
2838;SDS011;1427;48.510;9.060;2023-10-09T10:14:11;50.30;;;5.33;;
2838;SDS011;1427;48.510;9.060;2023-10-09T10:17:06;49.27;;;5.50;;
2838;SDS011;1427;48.510;9.060;2023-10-09T10:20:01;48.90;;;5.63;;
2838;SDS011;1427;48.510;9.060;2023-10-09T10:25:45;49.27;;;5.40;;
2838;SDS011;1427;48.510;9.060;2023-10-09T10:28:17;48.20;;;4.97;;
2838;SDS011;1427;48.510;9.060;2023-10-09T10:31:02;50.10;;;6.30;;
2838;SDS011;1427;48.510;9.060;2023-10-09T10:36:38;51.57;;;6.30;;
2838;SDS011;1427;48.510;9.060;2023-10-09T10:39:10;50.47;;;6.07;;
2838;SDS011;1427;48.510;9.060;2023-10-09T10:41:52;48.97;;;5.37;;
2838;SDS011;1427;48.510;9.060;2023-10-09T10:44:24;50.60;;;6.40;;
2838;SDS011;1427;48.510;9.060;2023-10-09T10:47:10;50.07;;;5.37;;
2838;SDS011;1427;48.510;9.060;2023-10-09T10:50:00;51.77;;;6.60;;
2838;SDS011;1427;48.510;9.060;2023-10-09T10:53:06;50.50;;;5.70;;
2838;SDS011;1427;48.510;9.060;2023-10-09T10:55:56;49.83;;;5.47;;
2838;SDS011;1427;48.510;9.060;2023-10-09T10:58:24;51.93;;;5.43;;
2838;SDS011;1427;48.510;9.060;2023-10-09T11:01:02;48.97;;;5.63;;
2838;SDS011;1427;48.510;9.060;2023-10-09T11:03:38;53.03;;;7.50;;
2838;SDS011;1427;48.510;9.060;2023-10-09T11:06:26;49.50;;;5.77;;
2838;SDS011;1427;48.510;9.060;2023-10-09T11:09:05;52.40;;;6.47;;
2838;SDS011;1427;48.510;9.060;2023-10-09T11:11:48;49.97;;;6.70;;
2838;SDS011;1427;48.510;9.060;2023-10-09T11:14:22;48.10;;;5.30;;
2838;SDS011;1427;48.510;9.060;2023-10-09T11:16:51;48.00;;;4.60;;
2838;SDS011;1427;48.510;9.060;2023-10-09T11:19:25;49.67;;;6.30;;
2838;SDS011;1427;48.510;9.060;2023-10-09T11:22:00;48.90;;;5.60;;
2838;SDS011;1427;48.510;9.060;2023-10-09T11:24:48;50.43;;;4.87;;
2838;SDS011;1427;48.510;9.060;2023-10-09T11:27:39;55.20;;;7.67;;
2838;SDS011;1427;48.510;9.060;2023-10-09T11:30:17;48.80;;;4.60;;
2838;SDS011;1427;48.510;9.060;2023-10-09T11:33:05;47.63;;;4.43;;
2838;SDS011;1427;48.510;9.060;2023-10-09T11:35:41;49.40;;;6.40;;
2838;SDS011;1427;48.510;9.060;2023-10-09T11:38:24;48.60;;;5.50;;
2838;SDS011;1427;48.510;9.060;2023-10-09T11:40:55;47.87;;;4.20;;
2838;SDS011;1427;48.510;9.060;2023-10-09T11:43:48;51.23;;;6.27;;
2838;SDS011;1427;48.510;9.060;2023-10-09T11:46:21;50.00;;;5.70;;
2838;SDS011;1427;48.510;9.060;2023-10-09T11:49:15;48.30;;;5.10;;
2838;SDS011;1427;48.510;9.060;2023-10-09T11:52:07;51.47;;;7.33;;
2838;SDS011;1427;48.510;9.060;2023-10-09T11:54:57;48.50;;;5.37;;
2838;SDS011;1427;48.510;9.060;2023-10-09T11:57:29;48.90;;;5.90;;
2838;SDS011;1427;48.510;9.060;2023-10-09T12:00:02;50.27;;;5.53;;
2838;SDS011;1427;48.510;9.060;2023-10-09T12:02:54;48.93;;;5.10;;
2838;SDS011;1427;48.510;9.060;2023-10-09T12:05:31;51.40;;;6.30;;
2838;SDS011;1427;48.510;9.060;2023-10-09T12:08:00;49.77;;;5.63;;
2838;SDS011;1427;48.510;9.060;2023-10-09T12:10:30;48.40;;;5.30;;
2838;SDS011;1427;48.510;9.060;2023-10-09T12:13:00;48.23;;;5.30;;
2838;SDS011;1427;48.510;9.060;2023-10-09T12:15:31;50.00;;;6.17;;
2838;SDS011;1427;48.510;9.060;2023-10-09T12:18:04;48.23;;;5.10;;
2838;SDS011;1427;48.510;9.060;2023-10-09T12:20:38;50.60;;;5.50;;
2838;SDS011;1427;48.510;9.060;2023-10-09T12:23:06;48.40;;;5.50;;
2838;SDS011;1427;48.510;9.060;2023-10-09T12:25:41;49.33;;;5.90;;
2838;SDS011;1427;48.510;9.060;2023-10-09T12:28:11;48.80;;;4.40;;
2838;SDS011;1427;48.510;9.060;2023-10-09T12:30:40;49.30;;;6.73;;
2838;SDS011;1427;48.510;9.060;2023-10-09T12:33:09;50.00;;;7.00;;
2838;SDS011;1427;48.510;9.060;2023-10-09T12:35:39;48.10;;;5.00;;
2838;SDS011;1427;48.510;9.060;2023-10-09T12:38:07;50.80;;;6.60;;
2838;SDS011;1427;48.510;9.060;2023-10-09T12:40:36;51.03;;;7.27;;
2838;SDS011;1427;48.510;9.060;2023-10-09T12:43:09;51.50;;;6.07;;
2838;SDS011;1427;48.510;9.060;2023-10-09T12:45:41;48.87;;;5.87;;
2838;SDS011;1427;48.510;9.060;2023-10-09T12:48:11;49.07;;;5.93;;
2838;SDS011;1427;48.510;9.060;2023-10-09T12:50:41;48.53;;;4.70;;
2838;SDS011;1427;48.510;9.060;2023-10-09T12:53:11;50.70;;;7.30;;
2838;SDS011;1427;48.510;9.060;2023-10-09T12:55:44;49.70;;;5.90;;
2838;SDS011;1427;48.510;9.060;2023-10-09T12:58:14;49.47;;;6.70;;
2838;SDS011;1427;48.510;9.060;2023-10-09T13:00:42;48.37;;;5.27;;
2838;SDS011;1427;48.510;9.060;2023-10-09T13:03:16;49.73;;;5.93;;
2838;SDS011;1427;48.510;9.060;2023-10-09T13:05:46;48.80;;;5.50;;
2838;SDS011;1427;48.510;9.060;2023-10-09T13:08:22;48.43;;;5.23;;
2838;SDS011;1427;48.510;9.060;2023-10-09T13:11:01;48.23;;;5.10;;
2838;SDS011;1427;48.510;9.060;2023-10-09T13:13:39;50.57;;;6.73;;
2838;SDS011;1427;48.510;9.060;2023-10-09T13:16:10;50.30;;;5.90;;
2838;SDS011;1427;48.510;9.060;2023-10-09T13:18:40;48.90;;;5.13;;
2838;SDS011;1427;48.510;9.060;2023-10-09T13:21:19;49.40;;;5.80;;
2838;SDS011;1427;48.510;9.060;2023-10-09T13:23:49;49.67;;;6.20;;
2838;SDS011;1427;48.510;9.060;2023-10-09T13:26:21;51.67;;;6.03;;
2838;SDS011;1427;48.510;9.060;2023-10-09T13:29:02;51.10;;;8.00;;
2838;SDS011;1427;48.510;9.060;2023-10-09T13:31:35;50.80;;;6.50;;
2838;SDS011;1427;48.510;9.060;2023-10-09T13:34:04;49.90;;;6.50;;
2838;SDS011;1427;48.510;9.060;2023-10-09T13:36:36;47.90;;;4.77;;
2838;SDS011;1427;48.510;9.060;2023-10-09T13:39:04;48.17;;;4.67;;
2838;SDS011;1427;48.510;9.060;2023-10-09T13:41:49;48.50;;;5.83;;
2838;SDS011;1427;48.510;9.060;2023-10-09T13:44:26;49.00;;;6.03;;
2838;SDS011;1427;48.510;9.060;2023-10-09T13:46:54;48.90;;;4.70;;
2838;SDS011;1427;48.510;9.060;2023-10-09T13:49:24;55.60;;;6.00;;
2838;SDS011;1427;48.510;9.060;2023-10-09T13:51:56;50.47;;;6.30;;
2838;SDS011;1427;48.510;9.060;2023-10-09T13:54:25;49.30;;;5.23;;
2838;SDS011;1427;48.510;9.060;2023-10-09T13:57:06;49.30;;;5.20;;
2838;SDS011;1427;48.510;9.060;2023-10-09T13:59:38;48.80;;;6.23;;
2838;SDS011;1427;48.510;9.060;2023-10-09T14:02:15;49.60;;;5.43;;
2838;SDS011;1427;48.510;9.060;2023-10-09T14:04:48;50.40;;;7.10;;
2838;SDS011;1427;48.510;9.060;2023-10-09T14:07:16;51.43;;;6.23;;
2838;SDS011;1427;48.510;9.060;2023-10-09T14:09:46;48.93;;;6.03;;
2838;SDS011;1427;48.510;9.060;2023-10-09T14:12:22;51.20;;;6.30;;
2838;SDS011;1427;48.510;9.060;2023-10-09T14:14:57;48.30;;;5.60;;
2838;SDS011;1427;48.510;9.060;2023-10-09T14:17:26;49.20;;;5.90;;
2838;SDS011;1427;48.510;9.060;2023-10-09T14:19:56;48.47;;;5.57;;
2838;SDS011;1427;48.510;9.060;2023-10-09T14:22:46;54.30;;;6.30;;
2838;SDS011;1427;48.510;9.060;2023-10-09T14:25:19;50.00;;;6.53;;
2838;SDS011;1427;48.510;9.060;2023-10-09T14:27:48;48.00;;;4.27;;
2838;SDS011;1427;48.510;9.060;2023-10-09T14:30:21;50.57;;;6.17;;
2838;SDS011;1427;48.510;9.060;2023-10-09T14:32:57;48.17;;;5.20;;
2838;SDS011;1427;48.510;9.060;2023-10-09T14:35:28;51.37;;;8.00;;
2838;SDS011;1427;48.510;9.060;2023-10-09T14:37:59;48.43;;;5.67;;
2838;SDS011;1427;48.510;9.060;2023-10-09T14:40:31;51.80;;;7.10;;
2838;SDS011;1427;48.510;9.060;2023-10-09T14:42:59;49.10;;;5.60;;
2838;SDS011;1427;48.510;9.060;2023-10-09T14:45:31;49.87;;;6.33;;
2838;SDS011;1427;48.510;9.060;2023-10-09T14:48:03;49.90;;;6.00;;
2838;SDS011;1427;48.510;9.060;2023-10-09T14:50:32;50.77;;;6.90;;
2838;SDS011;1427;48.510;9.060;2023-10-09T14:53:05;51.60;;;6.30;;
2838;SDS011;1427;48.510;9.060;2023-10-09T14:55:34;48.67;;;5.53;;
2838;SDS011;1427;48.510;9.060;2023-10-09T14:58:04;50.00;;;6.60;;
2838;SDS011;1427;48.510;9.060;2023-10-09T15:00:34;49.30;;;6.77;;
2838;SDS011;1427;48.510;9.060;2023-10-09T15:03:03;50.70;;;8.10;;
2838;SDS011;1427;48.510;9.060;2023-10-09T15:05:33;48.37;;;5.43;;
2838;SDS011;1427;48.510;9.060;2023-10-09T15:08:02;49.67;;;6.80;;
2838;SDS011;1427;48.510;9.060;2023-10-09T15:10:46;48.27;;;5.40;;
2838;SDS011;1427;48.510;9.060;2023-10-09T15:13:14;49.10;;;5.17;;
2838;SDS011;1427;48.510;9.060;2023-10-09T15:15:45;50.00;;;5.83;;
2838;SDS011;1427;48.510;9.060;2023-10-09T15:18:17;47.90;;;5.13;;
2838;SDS011;1427;48.510;9.060;2023-10-09T15:20:47;54.93;;;6.20;;
2838;SDS011;1427;48.510;9.060;2023-10-09T15:23:18;49.20;;;5.17;;
2838;SDS011;1427;48.510;9.060;2023-10-09T15:25:47;48.33;;;5.10;;
2838;SDS011;1427;48.510;9.060;2023-10-09T15:28:18;49.30;;;5.83;;
2838;SDS011;1427;48.510;9.060;2023-10-09T15:30:48;48.70;;;6.30;;
2838;SDS011;1427;48.510;9.060;2023-10-09T15:33:17;48.37;;;5.20;;
2838;SDS011;1427;48.510;9.060;2023-10-09T15:35:46;48.20;;;5.30;;
2838;SDS011;1427;48.510;9.060;2023-10-09T15:38:16;47.80;;;4.63;;
2838;SDS011;1427;48.510;9.060;2023-10-09T15:40:46;49.20;;;5.87;;
2838;SDS011;1427;48.510;9.060;2023-10-09T15:43:14;49.17;;;5.33;;
2838;SDS011;1427;48.510;9.060;2023-10-09T15:45:43;48.87;;;5.00;;
2838;SDS011;1427;48.510;9.060;2023-10-09T15:48:16;49.10;;;6.27;;
2838;SDS011;1427;48.510;9.060;2023-10-09T15:50:48;48.47;;;5.50;;
2838;SDS011;1427;48.510;9.060;2023-10-09T15:53:18;48.40;;;5.33;;
2838;SDS011;1427;48.510;9.060;2023-10-09T15:55:48;49.67;;;5.60;;